Terminal Aerodrome Forecast
Issued by NWS

Home | Current Version | Previous Version | Text Only | Print | Product List | Glossary Off
Versions: 1 2 3 4 5 6 7 8 9 10 11 12 13 14 15 16 17 18

000
FTUS43 KGRB 222324
TAFAUW
TAF
KAUW 222324Z 2300/2324 20005KT P6SM SKC
     FM230400 15004KT P6SM SKC WS007/20035KT
     FM231500 18012G23KT P6SM SCT250=

USA.gov is the U.S. government's official web portal to all federal, state and local government web resources and services.